Time;durP1;ratioP1;P1;durP2;ratioP2;P2;SDS_P1;SDS_P2;PMS_P1;PMS_P2;Temp;Humidity;BMP_temperature;BMP_pressure;BME280_temperature;BME280_humidity;BME280_pressure;Samples;Min_cycle;Max_cycle;Signal;HPM_P1;HPM_P2
2021/12/08 00:00:55;;;;;;;2.35;1.00;;;5.20;60.90;;;;;;4915080;29;20131;-79
2021/12/08 06:02:44;;;;;;;5.63;3.08;;;4.00;99.90;;;;;;4934902;29;20127;-76
2021/12/08 06:05:12;;;;;;;5.63;2.97;;;4.10;99.90;;;;;;4937123;29;20107;-76
2021/12/08 06:07:42;;;;;;;5.82;3.25;;;4.10;99.90;;;;;;4936752;29;20055;-76
2021/12/08 06:10:17;;;;;;;6.32;3.85;;;4.10;99.90;;;;;;4936981;29;20063;-76
2021/12/08 06:12:47;;;;;;;6.35;3.80;;;4.20;99.90;;;;;;4936672;29;20070;-76
2021/12/08 06:15:15;;;;;;;7.30;4.13;;;4.10;99.90;;;;;;4936817;29;20062;-76
2021/12/08 06:17:43;;;;;;;7.13;4.63;;;4.00;99.90;;;;;;4936644;29;20094;-77
2021/12/08 06:20:13;;;;;;;7.80;4.93;;;4.00;99.90;;;;;;4936633;29;20082;-76
2021/12/08 06:22:42;;;;;;;9.10;5.03;;;3.90;99.90;;;;;;4936368;29;20101;-77
2021/12/08 06:25:12;;;;;;;11.52;6.13;;;3.90;99.90;;;;;;4935651;29;20051;-76
2021/12/08 06:27:40;;;;;;;8.90;5.43;;;3.90;99.90;;;;;;4936149;29;20483;-76
2021/12/08 06:30:12;;;;;;;8.68;4.47;;;3.90;99.90;;;;;;4936551;29;20055;-76
2021/12/08 06:32:40;;;;;;;7.10;4.15;;;3.90;99.90;;;;;;4936205;29;20062;-76
2021/12/08 06:35:16;;;;;;;7.18;4.55;;;4.00;99.90;;;;;;4936085;29;20077;-76
2021/12/08 06:37:45;;;;;;;9.77;5.18;;;4.00;99.90;;;;;;4936065;29;20052;-76
2021/12/08 06:40:18;;;;;;;9.73;4.90;;;4.10;99.90;;;;;;4936090;29;20052;-76
2021/12/08 06:42:48;;;;;;;7.47;4.47;;;4.10;99.90;;;;;;4935954;29;20057;-77
2021/12/08 06:45:19;;;;;;;7.13;3.97;;;4.10;99.90;;;;;;4935894;29;20055;-76
2021/12/08 06:47:49;;;;;;;8.23;4.05;;;4.10;99.90;;;;;;4935991;29;20055;-76
2021/12/08 06:50:23;;;;;;;8.93;5.07;;;4.20;99.90;;;;;;4935651;29;20386;-76
2021/12/08 06:52:50;;;;;;;8.18;4.20;;;4.20;99.90;;;;;;4936220;29;20054;-77
2021/12/08 06:55:22;;;;;;;7.18;4.40;;;4.20;99.90;;;;;;4935848;29;20047;-76
2021/12/08 06:57:55;;;;;;;8.90;5.10;;;4.20;99.90;;;;;;4935578;29;20054;-76
2021/12/08 07:00:46;;;;;;;9.27;4.75;;;4.20;99.90;;;;;;4935450;29;20048;-76
2021/12/08 07:03:31;;;;;;;7.75;4.47;;;4.20;99.90;;;;;;4935482;29;20059;-76
2021/12/08 07:06:07;;;;;;;7.80;4.53;;;4.20;99.90;;;;;;4935785;29;20091;-76
2021/12/08 07:08:40;;;;;;;7.10;4.03;;;4.10;99.90;;;;;;4935330;29;20585;-76
2021/12/08 07:11:08;;;;;;;7.68;4.80;;;4.10;99.90;;;;;;4935461;29;20065;-76
2021/12/08 07:13:36;;;;;;;8.60;5.57;;;4.10;99.90;;;;;;4935637;29;20130;-76
2021/12/08 07:16:10;;;;;;;8.63;5.47;;;4.10;99.90;;;;;;4935490;29;20146;-76
2021/12/08 07:18:50;;;;;;;8.70;5.47;;;4.00;99.90;;;;;;4935366;29;20102;-76
2021/12/08 07:21:24;;;;;;;9.57;5.45;;;4.00;99.90;;;;;;4935118;29;20067;-76
2021/12/08 07:23:55;;;;;;;9.55;5.50;;;3.90;99.90;;;;;;4934587;29;20047;-76
2021/12/08 07:26:28;;;;;;;9.25;5.60;;;3.90;99.90;;;;;;4934753;29;20058;-75
2021/12/08 07:28:58;;;;;;;7.70;5.40;;;3.90;99.90;;;;;;4935219;29;20092;-75
2021/12/08 07:31:29;;;;;;;8.90;5.30;;;3.90;99.90;;;;;;4935097;29;20051;-75
2021/12/08 07:34:03;;;;;;;9.15;5.57;;;4.00;99.90;;;;;;4935104;29;20058;-76
2021/12/08 07:36:33;;;;;;;11.82;6.55;;;4.00;99.90;;;;;;4934637;29;20842;-77
2021/12/08 07:39:01;;;;;;;11.93;6.30;;;4.00;99.90;;;;;;4934763;29;20147;-77
2021/12/08 07:41:33;;;;;;;11.13;7.35;;;4.00;99.90;;;;;;4935028;29;20051;-76
2021/12/08 07:44:08;;;;;;;14.93;8.40;;;4.00;99.90;;;;;;4934873;29;20048;-77
2021/12/08 07:46:39;;;;;;;13.63;8.00;;;4.00;99.90;;;;;;4934899;29;20047;-76
2021/12/08 07:49:11;;;;;;;16.20;8.63;;;3.90;99.90;;;;;;4934965;29;20146;-76
2021/12/08 07:51:45;;;;;;;14.57;7.97;;;3.90;99.90;;;;;;4934978;29;20070;-76
2021/12/08 07:54:13;;;;;;;10.55;6.78;;;3.90;99.90;;;;;;4934779;29;20051;-76
2021/12/08 07:56:44;;;;;;;11.23;7.15;;;3.90;99.90;;;;;;4934780;29;20412;-77
2021/12/08 07:59:17;;;;;;;11.05;6.50;;;3.90;99.90;;;;;;4934706;29;20171;-76
2021/12/08 08:01:49;;;;;;;11.25;5.90;;;3.90;99.90;;;;;;4934360;29;20063;-76
2021/12/08 08:04:20;;;;;;;10.73;6.40;;;3.90;99.90;;;;;;4933981;29;20075;-75
2021/12/08 08:06:53;;;;;;;10.45;6.45;;;4.00;99.90;;;;;;4934750;29;20643;-76
2021/12/08 08:09:25;;;;;;;8.38;5.25;;;4.10;99.90;;;;;;4934615;29;20047;-76
2021/12/08 08:11:57;;;;;;;6.72;4.40;;;4.10;99.90;;;;;;4934964;29;20134;-76
2021/12/08 08:14:28;;;;;;;7.05;3.78;;;4.20;99.90;;;;;;4934883;29;20060;-76
2021/12/08 08:16:58;;;;;;;6.18;3.78;;;4.20;99.90;;;;;;4934758;29;20051;-77
2021/12/08 08:19:29;;;;;;;7.75;3.70;;;4.30;99.90;;;;;;4934375;29;20420;-76
2021/12/08 08:22:02;;;;;;;5.57;2.70;;;4.30;99.90;;;;;;4934135;29;20158;-76
2021/12/08 08:24:30;;;;;;;4.35;2.20;;;4.40;99.90;;;;;;4934510;29;20058;-76
2021/12/08 08:27:02;;;;;;;3.80;2.00;;;4.50;99.90;;;;;;4934888;29;20135;-76
2021/12/08 08:29:30;;;;;;;3.83;2.10;;;4.50;99.90;;;;;;4934555;29;20051;-76
2021/12/08 08:32:02;;;;;;;4.05;1.83;;;4.60;99.90;;;;;;4934620;29;20051;-76
2021/12/08 08:34:33;;;;;;;3.28;1.55;;;4.60;99.90;;;;;;4934508;29;20556;-77
2021/12/08 08:37:04;;;;;;;3.75;1.75;;;4.70;99.90;;;;;;4934496;29;20047;-77
2021/12/08 08:39:35;;;;;;;2.75;1.35;;;4.80;99.90;;;;;;4934536;29;20528;-76
2021/12/08 08:42:08;;;;;;;2.75;1.38;;;4.80;99.90;;;;;;4934489;29;20379;-76
2021/12/08 08:44:40;;;;;;;2.55;1.20;;;4.90;99.90;;;;;;4934558;29;20130;-76
2021/12/08 08:47:12;;;;;;;4.05;1.33;;;4.90;99.90;;;;;;4934317;29;20048;-76
2021/12/08 08:49:42;;;;;;;2.88;1.20;;;4.90;99.90;;;;;;4937145;29;20094;-76
2021/12/08 08:52:16;;;;;;;2.17;1.00;;;5.00;99.90;;;;;;4937293;29;20063;-76
2021/12/08 08:54:53;;;;;;;2.53;1.17;;;5.00;99.90;;;;;;4937962;29;20530;-76
2021/12/08 08:57:25;;;;;;;2.50;1.20;;;5.00;99.90;;;;;;4937854;29;21015;-76
2021/12/08 08:59:56;;;;;;;2.72;1.20;;;5.10;99.90;;;;;;4938238;29;20075;-76
2021/12/08 09:02:30;;;;;;;2.90;1.10;;;5.10;99.90;;;;;;4937671;29;20091;-76
2021/12/08 09:05:03;;;;;;;2.33;1.20;;;5.10;99.90;;;;;;4937971;29;20530;-76
2021/12/08 09:07:40;;;;;;;3.22;1.75;;;5.20;99.90;;;;;;4937875;29;20138;-76
2021/12/08 09:10:19;;;;;;;5.03;2.70;;;5.20;99.90;;;;;;4938009;29;20134;-75
2021/12/08 09:12:51;;;;;;;5.28;3.15;;;5.30;99.90;;;;;;4937806;29;20062;-75
2021/12/08 09:15:25;;;;;;;5.72;3.13;;;5.20;99.90;;;;;;4937391;29;20056;-76
2021/12/08 09:17:57;;;;;;;5.65;3.13;;;5.20;99.90;;;;;;4937753;29;20107;-76
2021/12/08 09:20:28;;;;;;;5.60;3.25;;;5.20;99.90;;;;;;4937593;29;20047;-76
2021/12/08 09:23:02;;;;;;;5.53;3.10;;;5.20;99.90;;;;;;4937767;29;20062;-78
2021/12/08 09:25:36;;;;;;;6.43;4.20;;;5.10;99.90;;;;;;4937463;29;20126;-75
2021/12/08 09:28:10;;;;;;;7.17;3.90;;;5.10;99.90;;;;;;4937489;29;20138;-78
2021/12/08 09:30:45;;;;;;;6.72;4.20;;;5.10;99.90;;;;;;4937436;29;20139;-78
2021/12/08 09:33:16;;;;;;;7.63;3.85;;;5.10;99.90;;;;;;4937476;29;20747;-75
2021/12/08 09:35:48;;;;;;;6.88;4.30;;;5.10;99.90;;;;;;4937789;29;20402;-77
2021/12/08 09:38:25;;;;;;;6.82;4.13;;;5.10;99.90;;;;;;4936691;29;20079;-77
2021/12/08 09:40:58;;;;;;;5.13;2.92;;;5.10;99.90;;;;;;4918277;29;20139;-77
2021/12/08 09:43:30;;;;;;;6.13;2.30;;;5.10;99.90;;;;;;4917895;29;20441;-78
2021/12/08 09:46:02;;;;;;;2.88;1.40;;;5.10;99.90;;;;;;4918356;29;20066;-77
2021/12/08 09:48:30;;;;;;;2.92;1.27;;;5.20;99.90;;;;;;4918335;29;20127;-78
2021/12/08 09:51:00;;;;;;;2.80;1.20;;;5.20;99.90;;;;;;4919303;29;20505;-78
2021/12/08 09:53:29;;;;;;;2.20;1.10;;;5.30;99.90;;;;;;4917862;29;20052;-78
2021/12/08 09:55:57;;;;;;;4.22;1.73;;;5.30;99.90;;;;;;4917573;29;20055;-78
2021/12/08 09:58:24;;;;;;;4.20;2.28;;;5.40;99.90;;;;;;4917794;29;20714;-78
2021/12/08 10:00:57;;;;;;;4.82;2.53;;;5.40;99.90;;;;;;4916288;29;20099;-78
2021/12/08 10:03:24;;;;;;;5.68;3.50;;;5.40;99.90;;;;;;4917601;29;20127;-78
2021/12/08 10:05:52;;;;;;;5.68;3.42;;;5.40;99.90;;;;;;4917668;29;20131;-78
2021/12/08 10:08:19;;;;;;;6.63;3.60;;;5.40;99.90;;;;;;4917587;29;20099;-78
2021/12/08 10:10:48;;;;;;;4.53;2.67;;;5.40;99.90;;;;;;4917654;29;20052;-78
2021/12/08 10:13:16;;;;;;;5.18;3.17;;;5.40;99.90;;;;;;4917594;29;20103;-77
2021/12/08 10:15:44;;;;;;;5.47;3.10;;;5.30;99.90;;;;;;4919073;29;20133;-78
2021/12/08 10:18:12;;;;;;;6.43;3.38;;;5.30;99.90;;;;;;4936492;29;20083;-77
2021/12/08 10:20:42;;;;;;;5.53;3.30;;;5.30;99.90;;;;;;4936520;29;20055;-78
2021/12/08 10:23:19;;;;;;;6.35;3.10;;;5.20;99.90;;;;;;4933436;29;20051;-78
2021/12/08 10:25:51;;;;;;;5.38;3.28;;;5.20;99.90;;;;;;4913890;29;20058;-78
2021/12/08 10:28:21;;;;;;;5.35;2.85;;;5.20;99.90;;;;;;4914201;29;20063;-77
2021/12/08 10:30:53;;;;;;;4.22;2.60;;;5.20;99.90;;;;;;4931180;29;20051;-79
2021/12/08 10:36:46;;;;;;;4.78;2.58;;;5.30;99.90;;;;;;4927680;29;20092;-75
2021/12/08 10:39:28;;;;;;;8.07;3.97;;;5.30;99.90;;;;;;4933102;29;20331;-76
2021/12/08 10:42:09;;;;;;;7.13;4.50;;;5.40;99.90;;;;;;4933081;29;20139;-75
2021/12/08 10:44:44;;;;;;;7.82;5.05;;;5.40;99.90;;;;;;4933253;29;20138;-76
2021/12/08 10:47:13;;;;;;;9.63;5.90;;;5.40;99.90;;;;;;4933288;29;20067;-78
2021/12/08 10:55:24;;;;;;;10.13;6.18;;;5.50;99.90;;;;;;4908281;29;20052;-78
2021/12/08 10:57:55;;;;;;;10.65;6.68;;;5.50;99.90;;;;;;4933059;29;20062;-78
2021/12/08 11:00:28;;;;;;;13.35;8.10;;;5.50;99.90;;;;;;4932742;29;20054;-78
2021/12/08 11:02:57;;;;;;;13.85;7.47;;;5.50;99.90;;;;;;4932416;29;20052;-78
2021/12/08 11:05:42;;;;;;;14.30;8.23;;;5.60;99.90;;;;;;4932950;29;20059;-78
2021/12/08 11:08:25;;;;;;;19.45;9.35;;;5.60;99.90;;;;;;4932904;29;20054;-75
2021/12/08 11:10:55;;;;;;;16.02;8.25;;;5.60;99.90;;;;;;4932124;29;20071;-77
2021/12/08 11:13:26;;;;;;;14.35;7.80;;;5.60;99.90;;;;;;4929243;29;20044;-77
2021/12/08 11:16:13;;;;;;;16.17;8.30;;;5.70;99.90;;;;;;4931878;29;20051;-77
2021/12/08 11:18:42;;;;;;;14.65;7.63;;;5.70;99.90;;;;;;4917828;29;20513;-77
2021/12/08 11:21:19;;;;;;;12.52;7.38;;;5.70;99.90;;;;;;4914258;29;20083;-77
2021/12/08 11:23:47;;;;;;;13.68;7.07;;;5.70;99.90;;;;;;4913524;29;20048;-78
2021/12/08 11:26:20;;;;;;;11.85;6.20;;;5.60;99.90;;;;;;4913595;29;20127;-75
2021/12/08 11:29:05;;;;;;;12.27;7.45;;;5.60;99.90;;;;;;4912996;29;20131;-77
2021/12/08 11:31:38;;;;;;;11.68;7.22;;;5.60;99.90;;;;;;4920072;29;20122;-77
2021/12/08 11:34:13;;;;;;;13.88;7.70;;;5.50;99.90;;;;;;4932217;29;20054;-77
2021/12/08 11:36:40;;;;;;;;;;;5.50;99.90;;;;;;4932770;29;20051;-77
2021/12/08 11:39:12;;;;;;;12.40;6.53;;;5.40;99.90;;;;;;4932316;29;19926;-75
2021/12/08 11:41:43;;;;;;;11.30;6.75;;;5.40;99.90;;;;;;4931791;29;20153;-77
2021/12/08 11:44:16;;;;;;;9.68;6.15;;;5.40;99.90;;;;;;4931729;29;20190;-77
2021/12/08 11:46:48;;;;;;;9.23;5.45;;;5.30;99.90;;;;;;4931988;29;20126;-77
2021/12/08 11:49:15;;;;;;;7.53;5.15;;;5.30;99.90;;;;;;4931952;29;20131;-77
2021/12/08 11:51:57;;;;;;;9.98;5.00;;;5.20;99.90;;;;;;4932074;29;20058;-77
2021/12/08 11:54:37;;;;;;;7.43;4.85;;;5.20;99.90;;;;;;4931383;29;20052;-78
2021/12/08 11:57:18;;;;;;;8.07;5.30;;;5.20;99.90;;;;;;4932070;29;20079;-77
2021/12/08 12:00:01;;;;;;;8.13;5.22;;;5.20;99.90;;;;;;4931436;29;20489;-78
2021/12/08 12:02:33;;;;;;;7.22;4.65;;;5.20;99.90;;;;;;4931633;29;20066;-78
2021/12/08 12:05:01;;;;;;;8.38;4.78;;;5.20;99.90;;;;;;4931875;29;20560;-77
2021/12/08 12:07:29;;;;;;;8.32;4.70;;;5.20;99.90;;;;;;4931706;29;20131;-77
2021/12/08 12:09:56;;;;;;;8.10;4.43;;;5.20;99.90;;;;;;4931651;29;20062;-77
2021/12/08 12:12:24;;;;;;;8.73;5.45;;;5.20;99.90;;;;;;4931887;29;20520;-78
2021/12/08 12:14:53;;;;;;;7.65;4.82;;;5.30;99.90;;;;;;4931504;29;20056;-78
2021/12/08 12:17:21;;;;;;;7.97;4.78;;;5.30;99.90;;;;;;4931606;29;20417;-77
2021/12/08 12:19:58;;;;;;;9.07;5.00;;;5.30;99.90;;;;;;4933107;29;20138;-75
2021/12/08 12:22:39;;;;;;;7.38;4.72;;;5.40;99.90;;;;;;4934081;29;20502;-78
2021/12/08 12:25:54;;;;;;;7.07;4.25;;;5.40;99.90;;;;;;4938114;29;20058;-76
2021/12/08 12:28:39;;;;;;;8.57;4.20;;;5.40;99.90;;;;;;4924827;29;20135;-76
2021/12/08 12:31:19;;;;;;;5.25;3.65;;;5.50;99.90;;;;;;4938348;29;20134;-75
2021/12/08 12:33:49;;;;;;;6.00;3.83;;;5.50;99.90;;;;;;4938406;29;20075;-76
2021/12/08 12:36:24;;;;;;;8.50;3.97;;;5.50;99.90;;;;;;4938094;29;20130;-75
2021/12/08 12:38:52;;;;;;;6.93;3.47;;;5.60;99.90;;;;;;4938676;29;20697;-77
2021/12/08 12:41:32;;;;;;;7.57;4.15;;;5.60;99.90;;;;;;4937230;29;20055;-77
2021/12/08 12:44:22;;;;;;;7.93;4.40;;;5.60;99.90;;;;;;4937645;29;20173;-77
2021/12/08 12:47:22;;;;;;;7.55;4.07;;;5.70;99.90;;;;;;4938049;29;20058;-77
2021/12/08 12:50:10;;;;;;;6.72;4.60;;;5.70;99.90;;;;;;4904768;29;20562;-77
2021/12/08 12:52:41;;;;;;;7.40;4.32;;;5.70;99.90;;;;;;4931763;29;20048;-77
2021/12/08 12:55:12;;;;;;;7.28;3.97;;;5.80;99.90;;;;;;4937870;29;20554;-77
2021/12/08 12:58:18;;;;;;;8.68;4.32;;;5.80;99.90;;;;;;4938145;29;20060;-77
2021/12/08 13:01:05;;;;;;;7.95;4.60;;;5.80;99.90;;;;;;4937356;29;20055;-77
2021/12/08 13:03:48;;;;;;;7.65;4.57;;;5.90;99.90;;;;;;4938030;29;20139;-78
2021/12/08 13:06:18;;;;;;;7.53;4.32;;;5.90;99.90;;;;;;4938066;29;20056;-77
2021/12/08 13:08:49;;;;;;;7.47;4.57;;;5.90;99.90;;;;;;4937443;29;20055;-77
2021/12/08 13:11:59;;;;;;;8.02;4.70;;;5.90;99.90;;;;;;4937689;29;20050;-77
2021/12/08 13:14:30;;;;;;;7.82;4.63;;;5.90;99.90;;;;;;4928798;29;20486;-77
2021/12/08 13:17:21;;;;;;;7.57;4.60;;;5.90;99.90;;;;;;4937702;29;20052;-77
2021/12/08 13:19:53;;;;;;;6.20;3.63;;;5.90;99.90;;;;;;4937591;29;20052;-77
2021/12/08 13:22:53;;;;;;;6.10;4.30;;;5.90;99.90;;;;;;4938079;29;20059;-77
2021/12/08 13:25:44;;;;;;;8.70;4.47;;;5.90;99.90;;;;;;4937430;29;20043;-77
2021/12/08 13:28:18;;;;;;;6.90;4.00;;;5.90;99.90;;;;;;4936934;29;20055;-77
2021/12/08 13:30:59;;;;;;;5.68;3.78;;;5.90;99.90;;;;;;4937316;29;20056;-77
2021/12/08 13:33:35;;;;;;;8.57;4.15;;;5.90;99.90;;;;;;4937386;29;20052;-77
2021/12/08 13:36:32;;;;;;;7.78;3.90;;;5.90;99.90;;;;;;4937302;29;20047;-78
2021/12/08 13:39:15;;;;;;;8.27;4.53;;;5.90;99.90;;;;;;4937139;29;20493;-77
2021/12/08 13:41:54;;;;;;;6.80;4.20;;;5.90;99.90;;;;;;4937054;29;20062;-77
2021/12/08 13:44:26;;;;;;;6.00;3.75;;;5.90;99.90;;;;;;4937021;29;20056;-77
2021/12/08 13:46:56;;;;;;;6.43;3.90;;;5.90;99.90;;;;;;4937010;29;20071;-78
2021/12/08 13:49:26;;;;;;;5.50;3.75;;;5.90;99.90;;;;;;4937007;29;20052;-78
2021/12/08 13:52:19;;;;;;;6.50;3.92;;;5.90;99.90;;;;;;4937181;29;20063;-78
2021/12/08 13:54:48;;;;;;;6.45;4.00;;;5.90;99.90;;;;;;4936978;29;20051;-78
2021/12/08 13:57:36;;;;;;;6.35;3.63;;;5.90;99.90;;;;;;4935730;29;20139;-75
2021/12/08 14:00:12;;;;;;;6.53;4.13;;;5.90;99.90;;;;;;4936785;29;20051;-78
2021/12/08 14:02:49;;;;;;;6.47;3.95;;;5.90;99.90;;;;;;4936597;29;20059;-77
2021/12/08 14:05:19;;;;;;;6.65;4.10;;;5.90;99.90;;;;;;4936738;29;20139;-76
2021/12/08 14:07:52;;;;;;;6.25;3.70;;;5.90;99.90;;;;;;4937178;29;20081;-78
2021/12/08 14:10:23;;;;;;;6.93;4.30;;;5.80;99.90;;;;;;4936534;29;20068;-77
2021/12/08 14:12:55;;;;;;;8.30;4.22;;;5.80;99.90;;;;;;4935540;29;20052;-77
2021/12/08 14:15:30;;;;;;;6.25;3.70;;;5.80;99.90;;;;;;4929771;29;20054;-77
2021/12/08 14:18:20;;;;;;;7.30;3.85;;;5.80;99.90;;;;;;4936359;29;20428;-76
2021/12/08 14:20:50;;;;;;;7.53;4.30;;;5.70;99.90;;;;;;4936661;29;20055;-77
2021/12/08 14:23:19;;;;;;;5.97;3.67;;;5.70;99.90;;;;;;4936431;29;20052;-77
2021/12/08 14:25:51;;;;;;;6.38;3.75;;;5.70;99.90;;;;;;4936191;29;20078;-74
2021/12/08 14:28:52;;;;;;;7.18;3.85;;;5.70;99.90;;;;;;4936382;29;20545;-75
2021/12/08 14:31:30;;;;;;;7.65;4.28;;;5.70;99.90;;;;;;4895107;29;20493;-76
2021/12/08 14:34:10;;;;;;;6.22;3.92;;;5.60;99.90;;;;;;4936397;29;20065;-75
2021/12/08 14:36:42;;;;;;;6.10;4.00;;;5.70;99.90;;;;;;4936025;29;20132;-75
2021/12/08 14:39:19;;;;;;;6.85;4.00;;;5.70;99.90;;;;;;4936031;29;20409;-76
2021/12/08 14:41:51;;;;;;;6.72;4.07;;;5.70;99.90;;;;;;4936232;29;20055;-76
2021/12/08 14:44:20;;;;;;;8.45;3.88;;;5.70;99.90;;;;;;4935974;29;20058;-77
2021/12/08 14:46:51;;;;;;;6.35;3.65;;;5.70;99.90;;;;;;4935025;29;20118;-75
2021/12/08 14:49:21;;;;;;;5.88;3.70;;;5.70;99.90;;;;;;4935347;29;20062;-76
2021/12/08 14:51:55;;;;;;;6.22;3.95;;;5.70;99.90;;;;;;4936023;29;20074;-76
2021/12/08 14:54:25;;;;;;;6.05;3.75;;;5.70;99.90;;;;;;4935279;29;20142;-75
2021/12/08 14:57:21;;;;;;;8.38;4.18;;;5.70;99.90;;;;;;4932932;29;20047;-77
2021/12/08 14:59:52;;;;;;;7.40;4.57;;;5.70;99.90;;;;;;4889299;29;20083;-75
2021/12/08 15:02:32;;;;;;;6.25;3.83;;;5.70;99.90;;;;;;4932776;29;20063;-77
2021/12/08 15:05:02;;;;;;;6.60;4.20;;;5.70;99.90;;;;;;4932745;29;20056;-77
2021/12/08 15:07:30;;;;;;;6.03;3.80;;;5.70;99.90;;;;;;4932262;29;20074;-76
2021/12/08 15:10:09;;;;;;;6.25;4.20;;;5.70;99.90;;;;;;4932895;29;20056;-76
2021/12/08 15:12:39;;;;;;;7.78;4.30;;;5.70;99.90;;;;;;4932629;29;20502;-76
2021/12/08 15:15:21;;;;;;;7.88;4.35;;;5.70;99.90;;;;;;4932473;29;20497;-76
2021/12/08 15:18:01;;;;;;;7.57;4.20;;;5.70;99.90;;;;;;4932670;29;20051;-77
2021/12/08 15:20:33;;;;;;;7.20;4.10;;;5.70;99.90;;;;;;4932437;29;20138;-75
2021/12/08 15:23:02;;;;;;;7.70;4.43;;;5.70;99.90;;;;;;4932195;29;20051;-75
2021/12/08 15:25:30;;;;;;;8.77;5.10;;;5.70;99.90;;;;;;4932199;29;20043;-75
2021/12/08 15:27:59;;;;;;;9.85;4.68;;;5.70;99.90;;;;;;4931014;29;20489;-75
2021/12/08 15:30:52;;;;;;;7.85;4.93;;;5.70;99.90;;;;;;4932082;29;20478;-75
2021/12/08 15:33:23;;;;;;;7.60;4.78;;;5.70;99.90;;;;;;4918091;29;20126;-75
2021/12/08 15:35:52;;;;;;;6.90;4.70;;;5.70;99.90;;;;;;4932208;29;20138;-75
2021/12/08 15:38:21;;;;;;;7.47;4.95;;;5.60;99.90;;;;;;4932295;29;20055;-75
2021/12/08 15:40:53;;;;;;;7.10;4.65;;;5.70;99.90;;;;;;4932336;29;20059;-76
2021/12/08 15:43:24;;;;;;;9.35;4.95;;;5.70;99.90;;;;;;4932123;29;20048;-76
2021/12/08 15:45:54;;;;;;;8.07;4.50;;;5.70;99.90;;;;;;4931994;29;20142;-76
2021/12/08 15:48:25;;;;;;;6.93;4.35;;;5.70;99.90;;;;;;4931567;29;20079;-76
2021/12/08 15:50:58;;;;;;;6.95;4.55;;;5.70;99.90;;;;;;4931979;29;20054;-76
2021/12/08 15:53:28;;;;;;;7.32;4.30;;;5.70;99.90;;;;;;4931187;29;20046;-77
2021/12/08 15:56:02;;;;;;;7.70;4.38;;;5.60;99.90;;;;;;4931223;29;20052;-81
2021/12/08 15:58:38;;;;;;;6.50;4.25;;;5.70;99.90;;;;;;4931075;29;20389;-80
2021/12/08 16:01:08;;;;;;;7.80;4.68;;;5.70;99.90;;;;;;4930820;29;20052;-80
2021/12/08 16:03:43;;;;;;;7.97;4.70;;;5.70;99.90;;;;;;4931303;29;20095;-80
2021/12/08 16:06:16;;;;;;;6.65;4.63;;;5.70;99.90;;;;;;4930936;29;20047;-79
2021/12/08 16:08:45;;;;;;;7.90;4.30;;;5.70;99.90;;;;;;4931549;29;20437;-79
2021/12/08 16:11:31;;;;;;;8.13;4.97;;;5.70;99.90;;;;;;4931389;29;20044;-79
2021/12/08 16:14:21;;;;;;;7.03;4.20;;;5.70;99.90;;;;;;4931585;29;20134;-79
2021/12/08 16:16:51;;;;;;;7.80;4.70;;;5.70;99.90;;;;;;4931708;29;20051;-79
2021/12/08 16:19:22;;;;;;;7.72;4.65;;;5.70;99.90;;;;;;4931596;29;20047;-78
2021/12/08 16:21:49;;;;;;;7.60;4.75;;;5.70;99.90;;;;;;4931316;29;20138;-78
2021/12/08 16:24:16;;;;;;;7.20;4.55;;;5.70;99.90;;;;;;4931680;29;20054;-79
2021/12/08 16:26:55;;;;;;;8.35;5.13;;;5.70;99.90;;;;;;4930853;29;20143;-81
2021/12/08 16:29:23;;;;;;;8.40;5.10;;;5.70;99.90;;;;;;4931561;29;20122;-78
2021/12/08 16:31:51;;;;;;;8.07;4.93;;;5.60;99.90;;;;;;4931339;29;20075;-80
2021/12/08 16:34:20;;;;;;;8.18;4.93;;;5.60;99.90;;;;;;4931640;29;20051;-80
2021/12/08 16:36:48;;;;;;;21.52;11.38;;;5.60;99.90;;;;;;4930228;29;20050;-80
2021/12/08 16:39:19;;;;;;;22.92;11.95;;;5.60;99.90;;;;;;4929809;29;20139;-80
2021/12/08 16:44:36;;;;;;;11.45;7.80;;;5.70;99.90;;;;;;4930683;29;20066;-81
2021/12/08 16:47:04;;;;;;;11.40;7.10;;;5.60;99.90;;;;;;4931083;29;20147;-80
2021/12/08 16:49:32;;;;;;;11.43;6.43;;;5.70;99.90;;;;;;4931247;29;20438;-81
2021/12/08 16:51:59;;;;;;;8.50;5.60;;;5.70;99.90;;;;;;4930538;29;20066;-81
2021/12/08 16:54:27;;;;;;;10.57;5.32;;;5.70;99.90;;;;;;4930337;29;20134;-80
2021/12/08 16:56:54;;;;;;;9.63;6.07;;;5.60;99.90;;;;;;4930534;29;20196;-80
2021/12/08 16:59:22;;;;;;;11.43;5.88;;;5.70;99.90;;;;;;4934686;29;20052;-80
2021/12/08 17:01:52;;;;;;;9.00;5.93;;;5.60;99.90;;;;;;4949327;28;20150;-80
2021/12/08 17:04:19;;;;;;;10.18;6.43;;;5.60;99.90;;;;;;4934300;29;20062;-80
2021/12/08 17:06:47;;;;;;;8.70;5.80;;;5.60;99.90;;;;;;4930605;29;20197;-81
2021/12/08 17:09:18;;;;;;;11.18;6.70;;;5.60;99.90;;;;;;4930978;29;20481;-80
2021/12/08 17:11:46;;;;;;;9.38;6.28;;;5.60;99.90;;;;;;4934159;29;20059;-80
2021/12/08 17:14:15;;;;;;;9.60;6.20;;;5.60;99.90;;;;;;4928521;29;20059;-81
2021/12/08 17:16:42;;;;;;;10.10;6.05;;;5.60;99.90;;;;;;4930926;29;20057;-80
2021/12/08 17:19:13;;;;;;;8.13;5.57;;;5.60;99.90;;;;;;4932341;29;20142;-81
2021/12/08 17:21:43;;;;;;;11.18;6.40;;;5.60;99.90;;;;;;4933467;29;20086;-81
2021/12/08 17:24:15;;;;;;;9.43;6.18;;;5.60;99.90;;;;;;4933601;29;20396;-80
2021/12/08 17:26:44;;;;;;;9.00;6.18;;;5.60;99.90;;;;;;4929919;29;20489;-80
2021/12/08 17:29:15;;;;;;;10.52;6.30;;;5.60;99.90;;;;;;4918115;29;20055;-79
2021/12/08 17:31:44;;;;;;;10.55;6.57;;;5.60;99.90;;;;;;4932495;29;20059;-79
2021/12/08 17:34:13;;;;;;;10.48;6.45;;;5.60;99.90;;;;;;4932647;29;20110;-78
2021/12/08 17:36:42;;;;;;;11.23;6.65;;;5.70;99.90;;;;;;4930797;29;20052;-81
2021/12/08 17:39:12;;;;;;;10.93;6.88;;;5.60;99.90;;;;;;4932564;29;20473;-79
2021/12/08 17:41:39;;;;;;;10.30;6.88;;;5.70;99.90;;;;;;4932813;29;20059;-80
2021/12/08 17:44:06;;;;;;;11.77;7.47;;;5.60;99.90;;;;;;4926938;29;20074;-75
2021/12/08 17:46:34;;;;;;;12.20;7.25;;;5.60;99.90;;;;;;4932676;29;20063;-75
2021/12/08 17:49:02;;;;;;;10.63;7.07;;;5.60;99.90;;;;;;4940060;29;20126;-77
2021/12/08 17:51:31;;;;;;;11.77;6.93;;;5.50;99.90;;;;;;4936282;29;20044;-77
2021/12/08 17:53:59;;;;;;;20.70;11.55;;;5.50;99.90;;;;;;4931967;29;20055;-77
2021/12/08 17:56:28;;;;;;;27.13;13.93;;;5.40;99.90;;;;;;4933160;29;20134;-77
2021/12/08 17:58:56;;;;;;;22.05;11.80;;;5.30;99.90;;;;;;4928426;29;20091;-77
2021/12/08 18:01:23;;;;;;;21.20;11.27;;;5.30;99.90;;;;;;4929401;29;20091;-77
2021/12/08 18:03:51;;;;;;;13.43;8.50;;;5.30;99.90;;;;;;4934277;29;20091;-77
2021/12/08 18:06:18;;;;;;;13.73;8.23;;;5.30;99.90;;;;;;4931858;29;20155;-77
2021/12/08 18:08:46;;;;;;;13.82;8.23;;;5.30;99.90;;;;;;4931435;29;20086;-77
2021/12/08 18:11:14;;;;;;;12.18;8.70;;;5.20;99.90;;;;;;4931488;29;20048;-77
2021/12/08 18:13:42;;;;;;;14.35;8.80;;;5.20;99.90;;;;;;4932870;29;20125;-77
2021/12/08 18:16:11;;;;;;;11.68;7.72;;;5.20;99.90;;;;;;4928122;29;20059;-79
2021/12/08 18:18:38;;;;;;;14.15;7.82;;;5.20;99.90;;;;;;4935512;29;20043;-78
2021/12/08 18:21:05;;;;;;;12.07;7.75;;;5.10;99.90;;;;;;4937211;29;20062;-78
2021/12/08 18:23:32;;;;;;;10.82;7.22;;;5.10;99.90;;;;;;4932056;29;20509;-79
2021/12/08 18:26:01;;;;;;;12.50;7.75;;;5.10;99.90;;;;;;4932080;29;20633;-78
2021/12/08 18:28:28;;;;;;;13.50;8.23;;;5.00;99.90;;;;;;4930592;29;20051;-78
2021/12/08 18:30:55;;;;;;;13.63;8.32;;;5.00;99.90;;;;;;4932121;29;20138;-78
2021/12/08 18:33:24;;;;;;;14.18;7.45;;;5.00;99.90;;;;;;4932243;29;20047;-78
2021/12/08 18:36:04;;;;;;;11.18;6.78;;;5.00;99.90;;;;;;4932468;29;20058;-78
2021/12/08 18:38:34;;;;;;;11.18;6.15;;;5.00;99.90;;;;;;4931447;29;20139;-78
2021/12/08 18:41:08;;;;;;;11.50;6.38;;;4.90;99.90;;;;;;4932466;29;20099;-78
2021/12/08 18:43:36;;;;;;;13.32;5.05;;;5.00;99.90;;;;;;4932099;29;20058;-78
2021/12/08 18:46:06;;;;;;;9.85;4.25;;;5.00;99.90;;;;;;4931989;29;20055;-78
2021/12/08 18:48:36;;;;;;;6.78;3.67;;;5.00;99.90;;;;;;4931799;29;20849;-78
2021/12/08 18:51:08;;;;;;;9.73;3.88;;;5.00;99.90;;;;;;4930966;29;20063;-80
2021/12/08 18:53:38;;;;;;;9.80;3.58;;;5.00;99.90;;;;;;4932230;29;20083;-78
2021/12/08 18:56:07;;;;;;;12.93;4.13;;;5.00;99.90;;;;;;4924546;29;20040;-79
2021/12/08 18:58:34;;;;;;;8.90;4.05;;;5.00;99.90;;;;;;4928229;29;20082;-79
2021/12/08 19:01:03;;;;;;;8.45;3.83;;;5.00;99.90;;;;;;4931538;29;20059;-78
2021/12/08 19:03:31;;;;;;;8.75;4.03;;;5.10;99.90;;;;;;4930294;29;20047;-79
2021/12/08 19:05:59;;;;;;;8.02;4.10;;;5.10;99.90;;;;;;4932384;29;20408;-78
2021/12/08 19:08:27;;;;;;;7.28;4.43;;;5.10;99.90;;;;;;4931348;29;20060;-79
2021/12/08 19:10:55;;;;;;;7.32;3.92;;;5.10;99.90;;;;;;4931890;29;20594;-77
2021/12/08 19:13:27;;;;;;;5.82;3.17;;;5.10;99.90;;;;;;4928574;29;20054;-82
2021/12/08 19:15:58;;;;;;;9.55;4.30;;;5.10;99.90;;;;;;4935781;29;20086;-79
2021/12/08 19:18:26;;;;;;;8.98;3.60;;;5.10;99.90;;;;;;4931767;29;20409;-77
2021/12/08 19:20:54;;;;;;;8.75;3.72;;;5.10;99.90;;;;;;4932001;29;20150;-77
2021/12/08 19:23:23;;;;;;;5.43;2.60;;;5.00;99.90;;;;;;4930698;29;20130;-79
2021/12/08 19:25:52;;;;;;;5.35;2.22;;;5.00;99.90;;;;;;4930613;29;20051;-80
2021/12/08 19:28:23;;;;;;;8.23;3.10;;;5.00;99.90;;;;;;4930912;29;20489;-80
2021/12/08 19:30:53;;;;;;;6.55;3.20;;;5.00;99.90;;;;;;4930113;29;20059;-80
2021/12/08 19:33:22;;;;;;;6.32;2.75;;;5.00;99.90;;;;;;4931723;29;20062;-80
2021/12/08 19:35:51;;;;;;;4.60;1.90;;;4.90;99.90;;;;;;4931590;29;20091;-81